Archiv-/Tagesdaten

--Timestamp---	Temp	Chill	HIndex	Humid	Dewpt	Wind	HiWind	WindDir	Rain	Barom	        Solar	ET	UV
--------------	----	-----	------	-----	-----	----	------	-------	----	-----	        -----	--	--
20080819 00:05	16.6	16.6	16.6	78	12.8	2	5	180	0.00	1013.718	0	0.000	0
20080819 00:10	16.5	16.5	16.5	78	12.6	0	3	180	0.00	1013.752	0	0.000	0
20080819 00:15	16.4	16.4	16.4	78	12.6	2	6	157	0.00	1013.752	0	0.000	0
20080819 00:20	16.4	16.4	16.4	78	12.5	2	6	180	0.00	1013.786	0	0.000	0
20080819 00:25	16.3	16.3	16.3	78	12.4	2	8	180	0.00	1013.752	0	0.000	0
20080819 00:30	16.2	16.2	16.2	78	12.4	2	10	202	0.00	1013.684	0	0.000	0
20080819 00:35	16.2	16.2	16.2	78	12.3	2	10	180	0.00	1013.718	0	0.000	0
20080819 00:40	16.1	16.1	16.1	78	12.3	2	8	180	0.00	1013.651	0	0.000	0
20080819 00:45	16.1	16.1	16.1	78	12.2	3	16	157	0.00	1013.651	0	0.000	0
20080819 00:50	16.0	16.0	16.0	78	12.2	3	16	202	0.00	1013.684	0	0.000	0
20080819 00:55	15.9	15.9	15.9	78	12.1	2	5	180	0.00	1013.651	0	0.000	0
20080819 01:00	15.8	15.8	15.8	78	11.9	2	8	202	0.00	1013.718	0	0.020	0
20080819 01:05	15.7	15.7	15.7	79	12.0	2	6	180	0.00	1013.684	0	0.000	0
20080819 01:10	15.6	15.6	15.6	79	12.0	2	10	202	0.00	1013.752	0	0.000	0
20080819 01:15	15.5	15.5	15.5	79	11.9	2	8	202	0.00	1013.718	0	0.000	0
20080819 01:20	15.4	15.4	15.4	80	12.0	0	5	202	0.00	1013.786	0	0.000	0
20080819 01:25	15.3	15.3	15.3	80	11.9	0	3	202	0.00	1013.854	0	0.000	0
20080819 01:30	15.2	15.2	15.2	81	11.9	2	5	202	0.00	1013.955	0	0.000	0
20080819 01:35	15.1	15.1	15.1	81	11.8	2	8	202	0.00	1013.989	0	0.000	0
20080819 01:40	15.1	15.1	15.1	81	11.9	2	8	180	0.00	1013.989	0	0.000	0
20080819 01:45	15.2	15.2	15.2	81	11.9	0	5	180	0.00	1014.023	0	0.000	0
20080819 01:50	15.1	15.1	15.1	81	11.9	0	3	180	0.00	1013.955	0	0.000	0
20080819 01:55	15.1	15.1	15.1	81	11.8	0	5	180	0.00	1013.989	0	0.000	0
20080819 02:00	15.0	15.0	15.0	81	11.8	2	5	180	0.00	1013.955	0	0.020	0
20080819 02:05	15.0	15.0	15.0	82	11.9	0	3	180	0.00	1013.752	0	0.000	0
20080819 02:10	15.0	15.0	15.0	82	11.9	0	2	180	0.00	1013.752	0	0.000	0
20080819 02:15	15.0	15.0	15.0	82	11.9	0	3	180	0.00	1013.786	0	0.000	0
20080819 02:20	14.9	14.9	14.9	82	11.9	0	3	180	0.00	1013.786	0	0.000	0
20080819 02:25	14.8	14.8	14.8	83	12.0	2	6	180	0.00	1013.786	0	0.000	0
20080819 02:30	14.8	14.8	14.8	83	12.0	0	5	180	0.00	1013.752	0	0.000	0
20080819 02:35	14.8	14.8	14.8	83	11.9	0	3	180	0.00	1013.786	0	0.000	0
20080819 02:40	14.8	14.8	14.8	83	11.9	2	6	180	0.00	1013.786	0	0.000	0
20080819 02:45	14.7	14.7	14.7	83	11.8	0	3	180	0.00	1013.820	0	0.000	0
20080819 02:50	14.6	14.6	14.6	83	11.8	0	3	180	0.00	1013.955	0	0.000	0
20080819 02:55	14.6	14.6	14.6	83	11.7	0	5	180	0.00	1013.888	0	0.000	0
20080819 03:00	14.6	14.6	14.6	83	11.7	0	5	180	0.00	1013.922	0	0.020	0
20080819 03:05	14.5	14.5	14.5	83	11.6	0	3	180	0.00	1013.888	0	0.000	0
20080819 03:10	14.5	14.5	14.5	83	11.6	0	5	180	0.00	1013.820	0	0.000	0
20080819 03:15	14.5	14.5	14.5	83	11.6	2	6	180	0.00	1013.786	0	0.000	0
20080819 03:20	14.6	14.6	14.6	83	11.7	2	6	157	0.00	1013.820	0	0.000	0
20080819 03:25	14.6	14.6	14.6	83	11.8	2	5	157	0.00	1013.820	0	0.000	0
20080819 03:30	14.7	14.7	14.7	83	11.8	2	6	180	0.00	1013.820	0	0.000	0
20080819 03:35	14.6	14.6	14.6	83	11.8	0	3	180	0.00	1013.854	0	0.000	0
20080819 03:40	14.6	14.6	14.6	83	11.8	0	5	180	0.00	1013.854	0	0.000	0
20080819 03:45	14.6	14.6	14.6	83	11.8	0	2	180	0.00	1013.888	0	0.000	0
20080819 03:50	14.6	14.6	14.6	83	11.8	0	3	180	0.00	1013.854	0	0.000	0
20080819 03:55	14.6	14.6	14.6	83	11.7	0	2	180	0.00	1013.854	0	0.000	0
20080819 04:00	14.6	14.6	14.6	83	11.7	0	3	180	0.00	1013.786	0	0.020	0
20080819 04:05	14.5	14.5	14.5	83	11.6	0	5	180	0.00	1013.786	0	0.000	0
20080819 04:10	14.6	14.6	14.6	83	11.7	0	3	180	0.00	1013.786	0	0.000	0
20080819 04:15	14.6	14.6	14.6	83	11.7	0	5	180	0.00	1013.752	0	0.000	0
20080819 04:20	14.7	14.7	14.7	82	11.6	2	10	180	0.00	1013.786	0	0.000	0
20080819 04:25	14.7	14.7	14.7	82	11.7	3	8	180	0.00	1013.651	0	0.000	0
20080819 04:30	14.8	14.8	14.8	82	11.7	3	11	180	0.00	1013.617	0	0.000	0
20080819 04:35	14.8	14.8	14.8	82	11.8	2	6	180	0.00	1013.684	0	0.000	0
20080819 04:40	14.8	14.8	14.8	82	11.7	3	8	180	0.00	1013.684	0	0.000	0
20080819 04:45	14.8	14.8	14.8	82	11.7	2	6	202	0.00	1013.684	0	0.000	0
20080819 04:50	14.7	14.7	14.7	82	11.6	0	5	202	0.00	1013.617	0	0.000	0
20080819 04:55	14.6	14.6	14.6	82	11.6	0	5	202	0.00	1013.718	0	0.000	0
20080819 05:00	14.6	14.6	14.6	82	11.5	2	5	202	0.00	1013.718	0	0.020	0
20080819 05:05	14.4	14.4	14.4	83	11.6	2	5	180	0.00	1013.583	0	0.000	0
20080819 05:10	14.3	14.3	14.3	83	11.5	2	5	180	0.00	1013.583	0	0.000	0
20080819 05:15	14.3	14.3	14.3	83	11.4	2	5	180	0.00	1013.583	0	0.000	0
20080819 05:20	14.2	14.2	14.2	83	11.4	2	5	180	0.00	1013.583	0	0.000	0
20080819 05:25	14.2	14.2	14.2	83	11.4	2	5	180	0.00	1013.549	0	0.000	0
20080819 05:30	14.2	14.2	14.2	83	11.4	2	6	180	0.00	1013.684	0	0.000	0
20080819 05:35	14.2	14.2	14.2	83	11.4	2	6	180	0.00	1013.651	0	0.000	0
20080819 05:40	14.2	14.2	14.2	83	11.4	2	6	180	0.00	1013.684	0	0.000	0
20080819 05:45	14.2	14.2	14.2	83	11.3	0	3	180	0.00	1013.752	0	0.000	0
20080819 05:50	14.2	14.2	14.2	83	11.3	0	3	180	0.00	1013.752	0	0.000	0
20080819 05:55	14.2	14.2	14.2	83	11.3	0	2	180	0.00	1013.786	0	0.000	0
20080819 06:00	14.2	14.2	14.2	83	11.3	0	2	180	0.00	1013.820	0	0.020	0
20080819 06:05	14.1	14.1	14.1	83	11.3	0	3	180	0.00	1014.023	0	0.000	0
20080819 06:10	14.1	14.1	14.1	83	11.3	0	5	180	0.00	1014.091	0	0.000	0
20080819 06:15	14.1	14.1	14.1	83	11.3	0	3	180	0.00	1014.023	0	0.000	0
20080819 06:20	14.1	14.1	14.1	83	11.3	0	3	180	0.00	1013.989	3	0.000	0
20080819 06:25	14.1	14.1	14.1	83	11.3	0	5	180	0.00	1013.955	6	0.000	0
20080819 06:30	14.1	14.1	14.1	83	11.3	0	2	180	0.00	1014.023	9	0.000	0
20080819 06:35	14.2	14.2	14.2	83	11.3	0	3	180	0.00	1013.955	10	0.000	0
20080819 06:40	14.2	14.2	14.2	83	11.3	0	2	180	0.00	1013.955	12	0.000	0
20080819 06:45	14.2	14.2	14.2	83	11.4	0	3	180	0.00	1013.922	15	0.000	0
20080819 06:50	14.3	14.3	14.3	83	11.4	0	5	180	0.00	1013.888	17	0.000	0
20080819 06:55	14.3	14.3	14.3	82	11.3	0	5	180	0.00	1013.955	19	0.000	0
20080819 07:00	14.5	14.5	14.5	82	11.5	0	5	180	0.00	1013.989	21	0.000	0
20080819 07:05	14.6	14.6	14.6	82	11.6	2	5	157	0.00	1014.192	23	0.000	0
20080819 07:10	14.8	14.8	14.8	81	11.5	2	5	180	0.00	1014.125	25	0.000	0
20080819 07:15	15.0	15.0	15.0	83	12.1	2	8	202	0.00	1014.159	26	0.000	0
20080819 07:20	15.0	15.0	15.0	81	11.8	3	10	202	0.00	1014.192	28	0.000	0
20080819 07:25	15.2	15.2	15.2	81	11.9	3	10	202	0.00	1014.125	29	0.000	0
20080819 07:30	15.3	15.3	15.3	80	11.8	3	8	225	0.00	1014.125	31	0.000	0
20080819 07:35	15.4	15.4	15.4	80	12.0	3	10	225	0.00	1014.057	77	0.000	0
20080819 07:40	15.7	15.7	15.7	79	12.0	2	6	180	0.00	1013.989	149	0.000	0
20080819 07:45	16.0	16.0	16.0	79	12.4	0	3	180	0.00	1013.888	163	0.000	0
20080819 07:50	16.3	16.3	16.3	79	12.7	2	5	180	0.00	1013.854	179	0.000	0
20080819 07:55	16.6	16.6	16.6	78	12.7	2	3	180	0.00	1013.820	196	0.000	0
20080819 08:00	16.8	16.8	16.8	77	12.7	2	8	180	0.00	1013.752	212	0.040	1
20080819 08:05	17.0	17.0	17.0	76	12.7	2	6	180	0.00	1013.989	226	0.000	1
20080819 08:10	17.3	17.3	17.3	76	13.0	3	8	202	0.00	1014.023	239	0.000	1
20080819 08:15	17.7	17.7	17.7	75	13.2	2	8	202	0.00	1013.854	251	0.000	1
20080819 08:20	17.9	17.9	17.9	75	13.4	2	6	157	0.00	1013.786	264	0.000	1
20080819 08:25	18.3	18.3	18.3	73	13.4	2	5	180	0.00	1013.752	277	0.000	1
20080819 08:30	18.7	18.7	18.7	72	13.5	0	5	180	0.00	1013.515	291	0.000	1
20080819 08:35	19.0	19.0	19.0	72	13.8	0	3	157	0.00	1013.515	304	0.000	1
20080819 08:40	19.3	19.3	19.3	71	13.9	0	2	157	0.00	1013.481	318	0.000	1
20080819 08:45	19.7	19.7	19.7	70	14.1	0	2	157	0.00	1013.414	329	0.000	1
20080819 08:50	20.1	20.1	20.1	68	14.0	2	5	157	0.00	1013.278	344	0.000	1
20080819 08:55	20.5	20.5	20.5	68	14.4	2	5	157	0.00	1013.312	358	0.000	2
20080819 09:00	20.6	20.6	20.6	67	14.3	2	6	157	0.00	1013.278	372	0.140	2
20080819 09:05	20.8	20.8	20.8	67	14.4	0	3	180	0.00	1013.346	385	0.000	2
20080819 09:10	21.1	21.1	21.1	67	14.7	2	5	180	0.00	1013.346	400	0.000	2
20080819 09:15	21.5	21.5	21.5	65	14.6	2	5	135	0.00	1013.278	421	0.000	2
20080819 09:20	21.6	21.6	21.6	65	14.7	2	6	180	0.00	1013.244	452	0.000	2
20080819 09:25	21.7	21.7	21.7	66	15.0	2	5	157	0.00	1013.312	331	0.000	2
20080819 09:30	21.7	21.7	21.7	64	14.6	2	6	157	0.00	1013.278	63	0.000	2
20080819 09:35	21.7	21.7	21.7	64	14.6	2	8	180	0.00	1013.278	57	0.000	2
20080819 09:40	21.7	21.7	21.7	64	14.6	0	5	180	0.00	1013.244	54	0.000	0
20080819 09:45	21.8	21.8	21.8	64	14.7	2	5	157	0.00	1013.244	53	0.000	0
20080819 09:50	21.9	21.9	21.9	63	14.6	2	6	157	0.00	1013.210	54	0.000	0
20080819 09:55	22.1	22.1	22.1	61	14.2	2	6	90	0.00	1013.278	54	0.000	0
20080819 10:00	22.3	22.3	22.3	61	14.4	2	6	112	0.00	1013.244	54	0.100	0
20080819 10:05	22.5	22.5	22.5	60	14.3	2	5	90	0.00	1013.210	54	0.000	0
20080819 10:10	22.7	22.7	22.7	59	14.3	2	5	180	0.00	1013.210	54	0.000	0
20080819 10:15	22.9	22.9	22.9	58	14.2	2	3	135	0.00	1013.143	55	0.000	1
20080819 10:20	23.1	23.1	23.1	55	13.5	0	3	157	0.00	1013.109	57	0.000	2
20080819 10:25	23.1	23.1	23.1	54	13.3	0	2	180	0.00	1013.109	61	0.000	2
20080819 10:30	23.3	23.3	23.3	55	13.7	2	5	180	0.00	1013.041	75	0.000	3
20080819 10:35	23.4	23.4	23.4	54	13.6	0	3	180	0.00	1013.075	137	0.000	3
20080819 10:40	23.7	23.7	23.7	53	13.5	0	5	180	0.00	1012.906	624	0.000	4
20080819 10:45	23.9	23.9	25.3	54	14.0	0	3	180	0.00	1012.872	535	0.000	4
20080819 10:50	24.1	24.1	25.4	52	13.6	0	2	180	0.00	1012.838	342	0.000	4
20080819 10:55	24.2	24.2	25.5	52	13.7	0	2	180	0.00	1012.770	319	0.000	4
20080819 11:00	24.2	24.2	25.5	52	13.7	0	5	180	0.00	1012.669	434	0.140	4
20080819 11:05	24.5	24.5	25.6	53	14.3	0	3	180	0.00	1012.499	662	0.000	5
20080819 11:10	24.8	24.8	25.8	50	13.7	2	6	180	0.00	1012.465	659	0.000	5
20080819 11:15	25.1	25.1	25.9	49	13.6	2	6	247	0.00	1012.465	668	0.000	5
20080819 11:20	25.4	25.4	26.2	50	14.2	2	6	135	0.00	1012.194	675	0.000	6
20080819 11:25	25.8	25.8	26.4	49	14.3	0	5	135	0.00	1012.161	683	0.000	6
20080819 11:30	26.1	26.1	26.5	47	13.9	2	5	112	0.00	1012.194	693	0.000	6
20080819 11:35	26.2	26.2	26.6	47	14.0	0	3	180	0.00	1012.093	701	0.000	6
20080819 11:40	26.2	26.2	26.5	46	13.6	2	11	202	0.00	1012.161	705	0.000	6
20080819 11:45	26.3	26.3	26.6	46	13.7	3	10	247	0.00	1012.127	712	0.000	6
20080819 11:50	26.2	26.2	26.6	47	14.0	2	6	247	0.00	1012.025	719	0.000	6
20080819 11:55	26.3	26.3	26.7	48	14.4	2	6	247	0.00	1011.957	726	0.000	6
20080819 12:00	26.4	26.4	26.7	46	13.8	2	6	112	0.00	1011.754	731	0.360	6
20080819 12:05	26.4	26.4	26.6	44	13.2	2	10	157	0.00	1011.890	736	0.000	7
20080819 12:10	26.4	26.4	26.7	46	13.9	2	6	157	0.00	1011.788	738	0.000	7
20080819 12:15	26.7	26.7	26.9	45	13.7	2	6	180	0.00	1011.788	742	0.000	7
20080819 12:20	26.8	26.8	27.0	46	14.2	2	8	225	0.00	1011.754	749	0.000	7
20080819 12:25	26.8	26.8	27.0	45	13.9	2	10	225	0.00	1011.788	759	0.000	7
20080819 12:30	26.9	26.9	27.0	45	13.9	2	5	157	0.00	1011.653	763	0.000	7
20080819 12:35	26.8	26.8	26.9	44	13.5	0	5	112	0.00	1011.619	669	0.000	7
20080819 12:40	26.9	26.9	27.1	46	14.3	0	3	247	0.00	1011.517	741	0.000	7
20080819 12:45	26.9	26.9	27.1	46	14.3	2	8	157	0.00	1011.551	810	0.000	7
20080819 12:50	26.9	26.9	27.1	45	14.0	3	8	135	0.00	1011.416	820	0.000	7
20080819 12:55	26.9	26.9	27.1	46	14.3	2	6	112	0.00	1011.483	710	0.000	7
20080819 13:00	26.9	26.9	27.0	44	13.6	0	3	180	0.00	1011.314	849	0.380	7
20080819 13:05	27.2	27.2	27.3	44	13.9	0	3	180	0.00	1011.280	801	0.000	8
20080819 13:10	27.3	27.3	27.4	46	14.6	2	6	180	0.00	1011.246	772	0.000	7
20080819 13:15	27.2	27.2	27.3	44	13.9	3	8	112	0.00	1011.212	768	0.000	7
20080819 13:20	27.2	27.2	27.2	43	13.5	3	6	135	0.00	1011.212	768	0.000	7
20080819 13:25	27.1	27.1	27.3	47	14.8	2	5	135	0.00	1011.111	770	0.000	8
20080819 13:30	27.3	27.3	27.4	45	14.3	3	10	112	0.00	1011.043	770	0.000	8
20080819 13:35	27.4	27.4	27.5	45	14.4	2	6	157	0.00	1010.975	770	0.000	8
20080819 13:40	27.3	27.3	27.2	43	13.6	2	5	45	0.00	1010.874	768	0.000	7
20080819 13:45	27.4	27.4	27.3	43	13.7	2	5	247	0.00	1010.772	766	0.000	7
20080819 13:50	27.7	27.7	27.6	44	14.3	0	2	202	0.00	1010.772	763	0.000	7
20080819 13:55	28.0	28.0	27.9	43	14.2	2	5	247	0.00	1010.603	762	0.000	7
20080819 14:00	28.2	28.2	27.9	41	13.7	2	6	112	0.00	1010.433	757	0.400	7
20080819 14:05	28.3	28.3	28.1	42	14.1	2	6	135	0.00	1010.535	756	0.000	7
20080819 14:10	28.4	28.4	28.0	40	13.5	2	5	157	0.00	1010.535	752	0.000	7
20080819 14:15	28.3	28.3	28.1	42	14.1	2	6	202	0.00	1010.501	749	0.000	7
20080819 14:20	28.5	28.5	28.4	43	14.7	0	2	202	0.00	1010.366	745	0.000	7
20080819 14:25	28.5	28.5	28.2	41	13.9	2	5	45	0.00	1010.366	741	0.000	7
20080819 14:30	28.3	28.3	28.1	43	14.5	0	3	45	0.00	1010.332	738	0.000	7
20080819 14:35	28.3	28.3	27.9	40	13.4	0	3	67	0.00	1010.230	730	0.000	7
20080819 14:40	28.3	28.3	28.0	40	13.4	2	8	112	0.00	1010.163	728	0.000	6
20080819 14:45	28.1	28.1	28.0	43	14.3	3	10	112	0.00	1010.129	726	0.000	6
20080819 14:50	28.0	28.0	27.8	42	13.9	2	5	157	0.00	1009.993	717	0.000	6
20080819 14:55	28.0	28.0	27.8	42	13.9	2	6	135	0.00	1009.959	711	0.000	6
20080819 15:00	28.4	28.4	27.9	39	13.1	0	5	157	0.00	1009.858	704	0.380	6
20080819 15:05	28.4	28.4	28.1	41	13.8	3	11	270	0.00	1009.790	696	0.000	6
20080819 15:10	28.4	28.4	28.1	40	13.5	3	8	135	0.00	1009.756	688	0.000	6
20080819 15:15	28.6	28.6	28.1	39	13.2	2	8	157	0.00	1009.621	678	0.000	6
20080819 15:20	28.3	28.3	28.0	41	13.8	2	6	45	0.00	1009.655	670	0.000	6
20080819 15:25	28.7	28.7	28.2	39	13.3	2	6	67	0.00	1009.451	664	0.000	5
20080819 15:30	28.3	28.3	28.0	41	13.8	5	10	45	0.00	1009.519	656	0.000	5
20080819 15:35	27.9	27.9	27.6	41	13.4	5	8	22	0.00	1009.587	646	0.000	5
20080819 15:40	27.8	27.8	27.5	41	13.3	3	10	45	0.00	1009.418	636	0.000	5
20080819 15:45	27.8	27.8	27.6	41	13.4	5	14	112	0.00	1009.350	625	0.000	5
20080819 15:50	27.9	27.9	27.7	41	13.5	3	8	112	0.00	1009.316	611	0.000	4
20080819 15:55	28.2	28.2	27.9	41	13.7	2	6	112	0.00	1009.350	602	0.000	4
20080819 16:00	28.1	28.1	27.8	41	13.6	3	6	67	0.00	1009.214	595	0.360	4
20080819 16:05	27.8	27.8	27.6	41	13.4	2	6	90	0.00	1009.248	583	0.000	4
20080819 16:10	27.9	27.9	27.6	41	13.4	2	6	135	0.00	1009.181	571	0.000	4
20080819 16:15	28.1	28.1	27.7	40	13.2	3	10	112	0.00	1009.181	554	0.000	4
20080819 16:20	28.2	28.2	27.9	40	13.3	2	5	90	0.00	1009.079	546	0.000	4
20080819 16:25	28.4	28.4	28.0	40	13.5	0	3	157	0.00	1009.113	538	0.000	3
20080819 16:30	28.2	28.2	27.8	40	13.3	3	6	45	0.00	1008.977	528	0.000	3
20080819 16:35	28.0	28.0	27.7	41	13.5	3	6	22	0.00	1009.011	519	0.000	3
20080819 16:40	27.9	27.9	27.6	40	13.0	2	6	45	0.00	1008.943	509	0.000	3
20080819 16:45	27.9	27.9	27.7	41	13.5	2	6	112	0.00	1008.808	496	0.000	3
20080819 16:50	28.0	28.0	27.7	41	13.5	3	8	112	0.00	1008.808	484	0.000	3
20080819 16:55	28.1	28.1	27.7	40	13.2	2	5	157	0.00	1008.808	469	0.000	3
20080819 17:00	28.2	28.2	28.0	42	14.0	2	8	112	0.00	1008.740	267	0.280	2
20080819 17:05	27.8	27.8	27.8	44	14.4	3	8	67	0.00	1008.740	143	0.000	2
20080819 17:10	27.7	27.7	27.7	44	14.3	3	10	135	0.00	1008.706	139	0.000	2
20080819 17:15	27.5	27.5	27.6	45	14.5	3	6	45	0.00	1008.571	151	0.000	2
20080819 17:20	27.3	27.3	27.4	46	14.6	3	6	22	0.00	1008.706	98	0.000	2
20080819 17:25	27.3	27.3	27.4	45	14.3	3	6	135	0.00	1008.605	136	0.000	2
20080819 17:30	27.4	27.4	27.6	46	14.8	0	3	135	0.00	1008.571	178	0.000	2
20080819 17:35	27.7	27.7	27.8	46	15.0	2	6	112	0.00	1008.503	327	0.000	2
20080819 17:40	27.7	27.7	27.8	46	15.0	2	8	135	0.00	1008.503	321	0.000	1
20080819 17:45	27.7	27.7	27.6	44	14.3	3	8	135	0.00	1008.435	306	0.000	1
20080819 17:50	27.7	27.7	27.7	44	14.3	3	10	112	0.00	1008.368	330	0.000	1
20080819 17:55	27.7	27.7	27.7	44	14.3	2	6	112	0.00	1008.334	317	0.000	1
20080819 18:00	27.7	27.7	27.7	45	14.6	2	6	135	0.00	1008.300	302	0.140	1
20080819 18:05	27.6	27.6	27.8	47	15.3	2	5	135	0.00	1008.266	288	0.000	1
20080819 18:10	27.7	27.7	27.8	46	15.0	2	6	135	0.00	1008.198	273	0.000	1
20080819 18:15	27.6	27.6	27.7	46	14.9	2	5	112	0.00	1008.029	258	0.000	1
20080819 18:20	27.4	27.4	27.6	46	14.8	2	5	90	0.00	1007.995	179	0.000	1
20080819 18:25	27.2	27.2	27.4	46	14.6	2	3	90	0.00	1007.961	198	0.000	1
20080819 18:30	27.1	27.1	27.2	45	14.1	0	3	90	0.00	1007.826	183	0.000	1
20080819 18:35	26.8	26.8	27.1	47	14.6	0	2	90	0.00	1007.792	46	0.000	0
20080819 18:40	26.6	26.6	27.0	48	14.7	0	3	90	0.00	1007.724	43	0.000	0
20080819 18:45	26.3	26.3	26.8	49	14.7	0	3	90	0.00	1007.928	39	0.000	0
20080819 18:50	26.1	26.1	26.6	50	14.9	0	0	90	0.00	1008.165	31	0.000	0
20080819 18:55	25.9	25.9	26.6	51	15.0	0	0	90	0.00	1008.232	39	0.000	0
20080819 19:00	25.9	25.9	26.5	51	15.0	0	2	90	0.00	1008.266	46	0.080	0
20080819 19:05	25.8	25.8	26.5	52	15.2	0	2	90	0.00	1008.131	40	0.000	0
20080819 19:10	25.7	25.7	26.4	53	15.4	0	0	90	0.00	1008.232	33	0.000	0
20080819 19:15	25.6	25.6	26.4	54	15.6	0	2	90	0.00	1008.165	36	0.000	0
20080819 19:20	25.5	25.5	26.2	51	14.6	0	0	90	0.00	1008.097	58	0.000	0
20080819 19:25	25.4	25.4	26.2	52	14.9	0	0	90	0.00	1008.131	50	0.000	0
20080819 19:30	25.4	25.4	26.2	54	15.4	0	0	90	0.00	1008.198	42	0.000	0
20080819 19:35	25.3	25.3	26.2	57	16.2	0	5	315	0.00	1008.165	39	0.000	0
20080819 19:40	25.2	25.2	26.2	59	16.6	3	11	315	0.00	1008.232	31	0.000	0
20080819 19:45	24.9	24.9	25.9	57	15.8	8	19	292	0.00	1008.334	27	0.000	0
20080819 19:50	24.4	24.4	25.6	59	15.9	5	11	292	0.00	1008.402	19	0.000	0
20080819 19:55	24.1	24.1	25.3	61	16.1	5	10	292	0.00	1008.503	9	0.000	0
20080819 20:00	23.7	23.7	23.7	64	16.4	2	10	292	0.00	1008.605	3	0.040	0
20080819 20:05	23.3	23.3	23.3	67	16.9	0	3	292	0.00	1008.469	0	0.000	0
20080819 20:10	22.8	22.8	22.8	70	17.0	3	6	270	0.00	1008.503	0	0.000	0
20080819 20:15	22.4	22.4	22.4	70	16.6	2	8	247	0.20	1008.402	0	0.000	0
20080819 20:20	21.9	21.9	21.9	74	17.1	2	5	270	0.00	1008.503	0	0.000	0
20080819 20:25	21.4	21.4	21.4	75	16.8	2	5	247	0.20	1008.469	0	0.000	0
20080819 20:30	21.1	21.1	21.1	78	17.1	2	6	202	0.00	1008.673	0	0.000	0
20080819 20:35	20.8	20.8	20.8	80	17.2	0	3	180	0.20	1008.842	0	0.000	0
20080819 20:40	20.6	20.6	20.6	80	17.0	2	6	202	0.00	1008.910	0	0.000	0
20080819 20:45	20.4	20.4	20.4	81	17.1	2	6	225	0.00	1009.045	0	0.000	0
20080819 20:50	20.3	20.3	20.3	81	17.0	6	27	247	0.00	1009.892	0	0.000	0
20080819 20:55	20.1	20.1	20.1	75	15.5	14	40	292	0.00	1010.467	0	0.000	0
20080819 21:00	19.2	19.2	19.2	75	14.7	21	40	292	0.20	1010.806	0	0.020	0
20080819 21:05	18.4	18.4	18.4	78	14.5	14	31	292	0.00	1010.874	0	0.000	0
20080819 21:10	18.0	18.0	18.0	80	14.5	5	16	270	0.00	1011.077	0	0.000	0
20080819 21:15	17.6	17.6	17.6	81	14.3	5	18	270	0.00	1011.348	0	0.000	0
20080819 21:20	17.3	17.3	17.3	84	14.6	5	14	292	0.20	1011.653	0	0.000	0
20080819 21:25	17.1	17.1	17.1	85	14.5	5	11	292	0.40	1011.890	0	0.000	0
20080819 21:30	16.8	16.8	16.8	86	14.5	5	11	292	0.80	1012.262	0	0.000	0
20080819 21:35	16.6	16.6	16.6	87	14.4	8	16	270	0.60	1012.533	0	0.000	0
20080819 21:40	16.4	16.4	16.4	88	14.4	5	16	270	0.20	1012.939	0	0.000	0
20080819 21:45	16.4	16.4	16.4	89	14.6	3	8	270	0.60	1013.278	0	0.000	0
20080819 21:50	16.3	16.3	16.3	90	14.7	5	11	247	0.60	1013.515	0	0.000	0
20080819 21:55	16.3	16.3	16.3	90	14.7	5	11	225	0.60	1013.786	0	0.000	0
20080819 22:00	16.3	16.3	16.3	91	14.9	3	10	247	0.20	1013.651	0	0.020	0
20080819 22:05	16.3	16.3	16.3	90	14.6	6	14	247	0.40	1013.312	0	0.000	0
20080819 22:10	16.2	16.2	16.2	90	14.5	8	18	270	0.40	1013.583	0	0.000	0
20080819 22:15	16.0	16.0	16.0	90	14.4	6	11	247	0.40	1013.651	0	0.000	0
20080819 22:20	15.9	15.9	15.9	90	14.3	6	11	270	0.40	1013.549	0	0.000	0
20080819 22:25	15.8	15.8	15.8	90	14.2	5	14	270	0.20	1013.651	0	0.000	0
20080819 22:30	15.7	15.7	15.7	90	14.1	3	6	270	0.00	1013.651	0	0.000	0
20080819 22:35	15.7	15.7	15.7	91	14.2	5	8	270	0.20	1013.651	0	0.000	0
20080819 22:40	15.6	15.6	15.6	91	14.1	5	10	270	0.20	1013.651	0	0.000	0
20080819 22:45	15.6	15.6	15.6	91	14.1	3	10	247	0.00	1013.651	0	0.000	0
20080819 22:50	15.6	15.6	15.6	91	14.1	5	10	247	0.00	1013.752	0	0.000	0
20080819 22:55	15.5	15.5	15.5	91	14.0	3	8	247	0.20	1013.888	0	0.000	0
20080819 23:00	15.6	15.6	15.6	92	14.3	3	8	247	0.00	1013.854	0	0.000	0
20080819 23:05	15.6	15.6	15.6	92	14.3	5	11	247	0.00	1013.684	0	0.000	0
20080819 23:10	15.6	15.6	15.6	92	14.3	5	11	247	0.00	1013.718	0	0.000	0
20080819 23:15	15.6	15.6	15.6	92	14.3	5	10	247	0.00	1013.786	0	0.000	0
20080819 23:20	15.7	15.7	15.7	92	14.4	5	10	247	0.00	1013.820	0	0.000	0
20080819 23:25	15.7	15.7	15.7	92	14.4	5	11	247	0.00	1013.820	0	0.000	0
20080819 23:30	15.7	15.7	15.7	92	14.4	5	10	247	0.00	1013.786	0	0.000	0
20080819 23:35	15.7	15.7	15.7	92	14.4	3	10	247	0.00	1013.752	0	0.000	0
20080819 23:40	15.7	15.7	15.7	92	14.4	3	6	270	0.00	1013.617	0	0.000	0
20080819 23:45	15.7	15.7	15.7	92	14.4	3	6	247	0.00	1013.651	0	0.000	0
20080819 23:50	15.7	15.7	15.7	92	14.4	2	6	247	0.00	1013.617	0	0.000	0
20080819 23:55	15.7	15.7	15.7	92	14.4	3	8	247	0.00	1013.651	0	0.000	0
20080819 24:00	15.7	15.7	15.7	92	14.4	0	6	247	0.00	1013.617	0	0.000	0



Please note the license to use and transfer of this data:
http://creativecommons.org/licenses/by-nc-sa/3.0/deed.en

Bitte beachten sie die Lizenz zur Verwertung und Weitergabe der Daten:
http://creativecommons.org/licenses/by-nc-sa/3.0/deed.de

zurück zur Übersicht der Archivdaten (Monats und Tagesdaten)

Cookies helfen bei der Bereitstellung von Inhalten. Durch die Nutzung dieser Seiten erklärst du dich damit einverstanden, dass Cookies auf deinem Rechner gespeichert werden. Weitere Information